createdAt,value
2016-08-21T00:00:30.576Z,5.98
2016-08-21T00:01:30.558Z,6.1
2016-08-21T00:02:30.565Z,6.21
2016-08-21T00:03:30.554Z,6.17
2016-08-21T00:04:30.518Z,6.08
2016-08-21T00:05:30.517Z,5.98
2016-08-21T00:06:30.515Z,5.93
2016-08-21T00:07:30.505Z,5.95
2016-08-21T00:08:30.518Z,6.06
2016-08-21T00:09:30.500Z,5.96
2016-08-21T00:10:30.476Z,6.02
2016-08-21T00:11:30.469Z,5.99
2016-08-21T00:12:30.454Z,5.92
2016-08-21T00:13:30.462Z,5.93
2016-08-21T00:14:30.438Z,5.95
2016-08-21T00:15:30.438Z,6.03
2016-08-21T00:16:30.421Z,5.95
2016-08-21T00:17:30.410Z,5.98
2016-08-21T00:18:30.394Z,5.9
2016-08-21T00:19:30.390Z,5.85
2016-08-21T00:20:30.384Z,5.84
2016-08-21T00:21:30.358Z,5.85
2016-08-21T00:22:30.356Z,5.87
2016-08-21T00:23:30.367Z,5.87
2016-08-21T00:24:30.343Z,5.92
2016-08-21T00:25:30.325Z,5.84
2016-08-21T00:26:30.341Z,5.83
2016-08-21T00:27:30.328Z,5.8
2016-08-21T00:28:30.311Z,5.73
2016-08-21T00:29:30.303Z,5.7
2016-08-21T00:30:30.275Z,5.74
2016-08-21T00:31:30.276Z,5.56
2016-08-21T00:32:30.271Z,5.55
2016-08-21T00:33:30.972Z,5.42
2016-08-21T00:34:30.241Z,5.44
2016-08-21T00:35:30.251Z,5.35
2016-08-21T00:36:30.213Z,5.3
2016-08-21T00:37:30.224Z,5.17
2016-08-21T00:38:30.215Z,5.26
2016-08-21T00:39:30.191Z,5.24
2016-08-21T00:40:30.199Z,5.24
2016-08-21T00:41:30.185Z,5.22
2016-08-21T00:42:30.185Z,5.22
2016-08-21T00:43:30.161Z,5.01
2016-08-21T00:44:30.131Z,4.94
2016-08-21T00:45:30.144Z,4.9
2016-08-21T00:46:30.140Z,4.71
2016-08-21T00:47:30.119Z,4.51
2016-08-21T00:48:30.243Z,4.49
2016-08-21T00:49:30.107Z,4.47
2016-08-21T00:50:30.097Z,4.17
2016-08-21T00:51:30.078Z,4.04
2016-08-21T00:52:30.074Z,3.63
2016-08-21T00:53:30.050Z,3.54
2016-08-21T00:54:30.037Z,3.62
2016-08-21T00:55:30.046Z,3.53
2016-08-21T00:56:30.035Z,3.53
2016-08-21T00:57:30.030Z,3.49
2016-08-21T00:58:30.001Z,3.45
2016-08-21T00:59:30.002Z,3.37
2016-08-21T01:00:29.984Z,3.23
2016-08-21T01:01:30.663Z,3.22
2016-08-21T01:02:29.961Z,3.25
2016-08-21T01:03:29.949Z,3.17
2016-08-21T01:04:29.924Z,3.2
2016-08-21T01:05:29.917Z,3.42
2016-08-21T01:06:29.895Z,3.41
2016-08-21T01:07:29.893Z,3.25
2016-08-21T01:08:29.892Z,3.26
2016-08-21T01:09:29.849Z,3.23
2016-08-21T01:10:29.839Z,3.05
2016-08-21T01:11:29.853Z,3.1
2016-08-21T01:12:29.812Z,3.04
2016-08-21T01:13:29.801Z,3.16
2016-08-21T01:14:29.827Z,2.89
2016-08-21T01:15:29.788Z,2.92
2016-08-21T01:16:29.801Z,2.83
2016-08-21T01:17:29.788Z,2.84
2016-08-21T01:18:29.757Z,2.9
2016-08-21T01:19:29.747Z,2.94
2016-08-21T01:20:29.740Z,2.9
2016-08-21T01:21:29.714Z,2.89
2016-08-21T01:22:29.705Z,2.79
2016-08-21T01:23:29.695Z,2.74
2016-08-21T01:24:29.698Z,2.65
2016-08-21T01:25:29.677Z,2.47
2016-08-21T01:26:29.663Z,2.44
2016-08-21T01:27:29.637Z,2.51
2016-08-21T01:28:29.619Z,2.55
2016-08-21T01:29:29.598Z,2.62
2016-08-21T01:30:29.619Z,2.68
2016-08-21T01:31:29.584Z,2.68
2016-08-21T01:32:29.588Z,2.56
2016-08-21T01:33:29.571Z,2.66
2016-08-21T01:34:29.546Z,2.66
2016-08-21T01:35:29.531Z,2.56
2016-08-21T01:36:29.529Z,2.76
2016-08-21T01:37:29.523Z,2.76
2016-08-21T01:38:29.512Z,2.77
2016-08-21T01:39:29.502Z,2.84
2016-08-21T01:40:29.477Z,2.81
2016-08-21T01:41:29.472Z,2.74
2016-08-21T01:42:29.457Z,2.74
2016-08-21T01:43:29.431Z,2.79
2016-08-21T01:44:29.444Z,2.84
2016-08-21T01:45:29.393Z,2.81
2016-08-21T01:46:29.402Z,2.83
2016-08-21T01:47:29.391Z,2.71
2016-08-21T01:48:29.458Z,2.66
2016-08-21T01:49:29.362Z,2.71
2016-08-21T01:50:29.348Z,2.62
2016-08-21T01:51:29.329Z,2.74
2016-08-21T01:52:29.325Z,2.8
2016-08-21T01:53:29.300Z,2.84
2016-08-21T01:54:29.296Z,2.95
2016-08-21T01:55:29.277Z,2.79
2016-08-21T01:56:29.247Z,2.73
2016-08-21T01:57:29.256Z,2.58
2016-08-21T01:58:29.245Z,2.48
2016-08-21T01:59:29.219Z,2.38
2016-08-21T02:00:29.197Z,2.15
2016-08-21T02:01:29.182Z,2.26
2016-08-21T02:02:29.197Z,2.09
2016-08-21T02:03:29.171Z,2.08
2016-08-21T02:04:29.146Z,1.98
2016-08-21T02:05:29.164Z,1.9
2016-08-21T02:06:29.136Z,1.93
2016-08-21T02:07:29.102Z,1.98
2016-08-21T02:08:29.110Z,2.08
2016-08-21T02:09:29.090Z,2
2016-08-21T02:10:29.083Z,2.08
2016-08-21T02:11:29.077Z,2.19
2016-08-21T02:12:29.056Z,2.11
2016-08-21T02:13:29.033Z,1.95
2016-08-21T02:14:29.035Z,2.07
2016-08-21T02:15:29.023Z,2.18
2016-08-21T02:16:28.979Z,1.86
2016-08-21T02:17:28.992Z,1.83
2016-08-21T02:18:28.982Z,1.68
2016-08-21T02:19:28.944Z,1.82
2016-08-21T02:20:28.937Z,1.75
2016-08-21T02:21:28.929Z,1.72
2016-08-21T02:22:28.937Z,1.54
2016-08-21T02:23:28.920Z,1.49
2016-08-21T02:24:28.915Z,1.65
2016-08-21T02:25:28.894Z,1.67
2016-08-21T02:26:28.867Z,1.6
2016-08-21T02:27:28.870Z,1.54
2016-08-21T02:28:28.846Z,1.46
2016-08-21T02:29:28.822Z,1.38
2016-08-21T02:30:28.808Z,1.47
2016-08-21T02:31:28.807Z,1.56
2016-08-21T02:32:28.771Z,1.65
2016-08-21T02:33:28.748Z,1.74
2016-08-21T02:34:28.744Z,1.77
2016-08-21T02:35:28.744Z,1.85
2016-08-21T02:36:28.733Z,1.81
2016-08-21T02:37:28.715Z,1.83
2016-08-21T02:38:28.691Z,1.86
2016-08-21T02:39:28.670Z,2.07
2016-08-21T02:40:28.676Z,1.92
2016-08-21T02:41:28.670Z,1.83
2016-08-21T02:42:28.646Z,1.71
2016-08-21T02:43:28.650Z,1.79
2016-08-21T02:44:28.632Z,1.7
2016-08-21T02:45:28.601Z,1.83
2016-08-21T02:46:28.598Z,1.79
2016-08-21T02:47:28.603Z,1.86
2016-08-21T02:48:28.735Z,1.81
2016-08-21T02:49:28.530Z,1.85
2016-08-21T02:50:28.549Z,1.83
2016-08-21T02:51:28.532Z,1.77
2016-08-21T02:52:28.502Z,1.72
2016-08-21T02:53:28.492Z,1.6
2016-08-21T02:54:28.500Z,1.65
2016-08-21T02:55:28.466Z,1.68
2016-08-21T02:56:28.457Z,1.74
2016-08-21T02:57:28.452Z,1.61
2016-08-21T02:58:28.421Z,1.61
2016-08-21T02:59:28.417Z,1.57
2016-08-21T03:00:28.396Z,1.56
2016-08-21T03:01:28.381Z,1.53
2016-08-21T03:02:28.361Z,1.64
2016-08-21T03:03:28.358Z,1.54
2016-08-21T03:04:28.326Z,1.56
2016-08-21T03:05:28.332Z,1.57
2016-08-21T03:06:28.299Z,1.6
2016-08-21T03:07:28.311Z,1.57
2016-08-21T03:08:28.277Z,1.61
2016-08-21T03:09:28.277Z,1.53
2016-08-21T03:10:28.262Z,1.68
2016-08-21T03:11:28.230Z,1.64
2016-08-21T03:12:28.222Z,1.72
2016-08-21T03:13:28.233Z,1.57
2016-08-21T03:14:28.200Z,1.43
2016-08-21T03:15:28.206Z,1.5
2016-08-21T03:16:28.174Z,1.35
2016-08-21T03:17:28.161Z,1.42
2016-08-21T03:18:28.131Z,1.39
2016-08-21T03:19:28.132Z,1.32
2016-08-21T03:20:28.116Z,1.21
2016-08-21T03:21:28.099Z,1.26
2016-08-21T03:22:28.090Z,1.34
2016-08-21T03:23:28.082Z,1.29
2016-08-21T03:24:28.059Z,1.2
2016-08-21T03:25:28.052Z,1.32
2016-08-21T03:26:28.030Z,1.31
2016-08-21T03:27:28.015Z,1.32
2016-08-21T03:28:27.998Z,1.46
2016-08-21T03:29:27.974Z,1.46
2016-08-21T03:30:27.981Z,1.43
2016-08-21T03:31:27.966Z,1.47
2016-08-21T03:32:27.958Z,1.52
2016-08-21T03:33:27.936Z,1.5
2016-08-21T03:34:27.931Z,1.49
2016-08-21T03:35:27.922Z,1.36
2016-08-21T03:36:27.886Z,1.47
2016-08-21T03:37:27.894Z,1.57
2016-08-21T03:38:27.847Z,1.39
2016-08-21T03:39:27.868Z,1.35
2016-08-21T03:40:27.825Z,1.42
2016-08-21T03:41:27.838Z,1.35
2016-08-21T03:42:27.795Z,1.39
2016-08-21T03:43:27.788Z,1.31
2016-08-21T03:44:27.766Z,1.21
2016-08-21T03:45:27.746Z,1.2
2016-08-21T03:46:27.757Z,1.11
2016-08-21T03:47:27.739Z,1.16
2016-08-21T03:48:27.717Z,1.1
2016-08-21T03:49:27.724Z,1.11
2016-08-21T03:50:27.686Z,1.18
2016-08-21T03:51:27.659Z,1.16
2016-08-21T03:52:27.660Z,1.16
2016-08-21T03:53:27.643Z,1.13
2016-08-21T03:54:27.637Z,1.08
2016-08-21T03:55:27.615Z,1.18
2016-08-21T03:56:27.612Z,1.21
2016-08-21T03:57:27.592Z,1.17
2016-08-21T03:58:27.558Z,1.17
2016-08-21T03:59:27.569Z,1.29
2016-08-21T04:00:27.530Z,1.2
2016-08-21T04:01:27.512Z,1.29
2016-08-21T04:02:27.513Z,1.17
2016-08-21T04:03:27.496Z,1.18
2016-08-21T04:04:27.479Z,1.16
2016-08-21T04:05:27.453Z,1.16
2016-08-21T04:06:27.454Z,1.21
2016-08-21T04:07:27.461Z,1.21
2016-08-21T04:08:27.418Z,1.2
2016-08-21T04:09:27.435Z,1.2
2016-08-21T04:10:27.398Z,1.25
2016-08-21T04:11:27.402Z,1.2
2016-08-21T04:12:27.368Z,1.17
2016-08-21T04:13:27.372Z,1.14
2016-08-21T04:14:27.360Z,1.2
2016-08-21T04:15:27.347Z,1.13
2016-08-21T04:16:27.300Z,1.18
2016-08-21T04:17:27.315Z,1.16
2016-08-21T04:18:27.303Z,1.25
2016-08-21T04:19:27.986Z,1.25
2016-08-21T04:20:27.256Z,1.26
2016-08-21T04:21:27.249Z,1.29
2016-08-21T04:22:27.245Z,1.31
2016-08-21T04:23:27.220Z,1.49
2016-08-21T04:24:27.200Z,1.5
2016-08-21T04:25:27.176Z,1.44
2016-08-21T04:26:27.181Z,1.57
2016-08-21T04:27:27.158Z,1.56
2016-08-21T04:28:27.157Z,1.72
2016-08-21T04:29:27.132Z,1.77
2016-08-21T04:30:27.108Z,1.79
2016-08-21T04:31:27.105Z,1.75
2016-08-21T04:32:27.074Z,1.72
2016-08-21T04:33:27.080Z,1.81
2016-08-21T04:34:27.053Z,1.71
2016-08-21T04:35:27.046Z,1.71
2016-08-21T04:36:27.025Z,1.72
2016-08-21T04:37:27.012Z,1.77
2016-08-21T04:38:27.010Z,1.74
2016-08-21T04:39:26.999Z,1.75
2016-08-21T04:40:26.969Z,1.77
2016-08-21T04:41:26.939Z,1.86
2016-08-21T04:42:26.945Z,1.82
2016-08-21T04:43:26.945Z,1.77
2016-08-21T04:44:26.904Z,1.75
2016-08-21T04:45:26.896Z,1.89
2016-08-21T04:46:26.899Z,1.77
2016-08-21T04:47:26.881Z,1.75
2016-08-21T04:48:26.850Z,1.83
2016-08-21T04:49:26.841Z,1.88
2016-08-21T04:50:26.823Z,1.95
2016-08-21T04:51:26.797Z,2.01
2016-08-21T04:52:26.785Z,1.98
2016-08-21T04:53:26.791Z,2.04
2016-08-21T04:54:26.756Z,2.14
2016-08-21T04:55:26.770Z,2.07
2016-08-21T04:56:26.728Z,2.15
2016-08-21T04:57:26.727Z,2.09
2016-08-21T04:58:26.701Z,2.14
2016-08-21T04:59:26.686Z,2.29
2016-08-21T05:00:26.700Z,2.27
2016-08-21T05:01:26.680Z,2.27
2016-08-21T05:02:26.659Z,2.19
2016-08-21T05:03:26.650Z,2.14
2016-08-21T05:04:26.626Z,2.04
2016-08-21T05:05:26.616Z,2.01
2016-08-21T05:06:26.602Z,2.04
2016-08-21T05:07:26.590Z,1.88
2016-08-21T05:08:26.596Z,2.02
2016-08-21T05:09:26.575Z,1.92
2016-08-21T05:10:26.534Z,1.85
2016-08-21T05:11:26.533Z,2.01
2016-08-21T05:12:26.509Z,2
2016-08-21T05:13:26.513Z,1.9
2016-08-21T05:14:26.500Z,1.92
2016-08-21T05:15:26.476Z,1.82
2016-08-21T05:16:26.450Z,1.77
2016-08-21T05:17:26.464Z,1.81
2016-08-21T05:18:26.437Z,1.77
2016-08-21T05:19:26.423Z,1.86
2016-08-21T05:20:26.430Z,1.82
2016-08-21T05:21:26.390Z,1.82
2016-08-21T05:22:26.373Z,1.77
2016-08-21T05:23:26.374Z,1.81
2016-08-21T05:24:26.349Z,1.79
2016-08-21T05:25:26.359Z,1.82
2016-08-21T05:26:26.329Z,1.86
2016-08-21T05:27:26.317Z,1.88
2016-08-21T05:28:26.284Z,1.86
2016-08-21T05:29:26.283Z,1.98
2016-08-21T05:30:26.980Z,1.95
2016-08-21T05:31:26.261Z,2.04
2016-08-21T05:32:26.240Z,1.95
2016-08-21T05:33:26.208Z,1.88
2016-08-21T05:34:26.212Z,1.93
2016-08-21T05:35:26.183Z,2
2016-08-21T05:36:26.185Z,1.93
2016-08-21T05:37:26.177Z,1.98
2016-08-21T05:38:26.161Z,2.01
2016-08-21T05:39:26.155Z,1.9
2016-08-21T05:40:26.135Z,1.95
2016-08-21T05:41:26.100Z,1.89
2016-08-21T05:42:26.087Z,2
2016-08-21T05:43:26.077Z,1.9
2016-08-21T05:44:26.780Z,1.98
2016-08-21T05:45:26.058Z,2
2016-08-21T05:46:26.071Z,1.92
2016-08-21T05:47:26.042Z,2.02
2016-08-21T05:48:26.026Z,2.02
2016-08-21T05:49:26.001Z,2.04
2016-08-21T05:50:25.998Z,1.98
2016-08-21T05:51:25.975Z,2.02
2016-08-21T05:52:25.957Z,2.08
2016-08-21T05:53:25.958Z,1.93
2016-08-21T05:54:25.932Z,2.08
2016-08-21T05:55:25.915Z,2.01
2016-08-21T05:56:25.905Z,2
2016-08-21T05:57:25.909Z,1.95
2016-08-21T05:58:25.890Z,1.89
2016-08-21T05:59:25.873Z,1.88
2016-08-21T06:00:25.849Z,1.82
2016-08-21T06:01:26.536Z,1.82
2016-08-21T06:02:25.836Z,1.7
2016-08-21T06:03:25.830Z,1.67
2016-08-21T06:04:25.792Z,1.79
2016-08-21T06:05:25.780Z,1.77
2016-08-21T06:06:25.785Z,1.71
2016-08-21T06:07:25.749Z,1.74
2016-08-21T06:08:25.723Z,1.81
2016-08-21T06:09:25.746Z,1.81
2016-08-21T06:10:25.707Z,1.82
2016-08-21T06:11:25.719Z,1.82
2016-08-21T06:12:25.685Z,1.85
2016-08-21T06:13:25.671Z,1.86
2016-08-21T06:14:25.658Z,1.88
2016-08-21T06:15:25.666Z,1.9
2016-08-21T06:16:25.621Z,1.92
2016-08-21T06:17:25.608Z,1.83
2016-08-21T06:18:25.611Z,1.82
2016-08-21T06:19:25.594Z,1.93
2016-08-21T06:20:25.576Z,1.88
2016-08-21T06:21:25.548Z,2.01
2016-08-21T06:22:25.549Z,2
2016-08-21T06:23:25.539Z,1.93
2016-08-21T06:24:25.532Z,2.01
2016-08-21T06:25:25.492Z,2.08
2016-08-21T06:26:25.513Z,1.9
2016-08-21T06:27:25.473Z,1.98
2016-08-21T06:28:25.449Z,1.9
2016-08-21T06:29:25.438Z,1.86
2016-08-21T06:30:25.438Z,1.85
2016-08-21T06:31:25.412Z,1.89
2016-08-21T06:32:25.416Z,1.85
2016-08-21T06:33:25.386Z,1.95
2016-08-21T06:34:25.391Z,2.08
2016-08-21T06:35:25.376Z,2.11
2016-08-21T06:36:25.347Z,2.09
2016-08-21T06:37:25.348Z,2.11
2016-08-21T06:38:25.327Z,2.2
2016-08-21T06:39:25.327Z,2.23
2016-08-21T06:40:25.300Z,2.27
2016-08-21T06:41:25.283Z,2.4
2016-08-21T06:42:25.278Z,2.43
2016-08-21T06:43:25.261Z,2.51
2016-08-21T06:44:25.239Z,2.48
2016-08-21T06:45:25.226Z,2.5
2016-08-21T06:46:25.215Z,2.59
2016-08-21T06:47:25.208Z,2.55
2016-08-21T06:48:25.196Z,2.48
2016-08-21T06:49:25.181Z,2.45
2016-08-21T06:50:25.163Z,2.58
2016-08-21T06:51:25.162Z,2.56
2016-08-21T06:52:25.158Z,2.48
2016-08-21T06:53:25.142Z,2.51
2016-08-21T06:54:25.126Z,2.55
2016-08-21T06:55:25.113Z,2.43
2016-08-21T06:56:25.080Z,2.47
2016-08-21T06:57:25.094Z,2.45
2016-08-21T06:58:25.071Z,2.55
2016-08-21T06:59:25.053Z,2.65
2016-08-21T07:00:25.045Z,2.73
2016-08-21T07:01:25.034Z,2.71
2016-08-21T07:02:25.016Z,2.55
2016-08-21T07:03:24.996Z,2.47
2016-08-21T07:04:24.988Z,2.5
2016-08-21T07:05:25.694Z,2.44
2016-08-21T07:06:24.965Z,2.51
2016-08-21T07:07:24.967Z,2.43
2016-08-21T07:08:24.926Z,2.48
2016-08-21T07:09:24.934Z,2.41
2016-08-21T07:10:24.899Z,2.47
2016-08-21T07:11:24.896Z,2.5
2016-08-21T07:12:24.901Z,2.62
2016-08-21T07:13:24.882Z,2.77
2016-08-21T07:14:24.874Z,2.73
2016-08-21T07:15:24.857Z,2.48
2016-08-21T07:16:24.843Z,2.41
2016-08-21T07:17:24.831Z,2.15
2016-08-21T07:18:24.810Z,2.32
2016-08-21T07:19:24.801Z,2.26
2016-08-21T07:20:24.809Z,2.26
2016-08-21T07:21:24.769Z,2.32
2016-08-21T07:22:24.761Z,2.3
2016-08-21T07:23:24.755Z,2.38
2016-08-21T07:24:24.744Z,2.45
2016-08-21T07:25:24.712Z,2.61
2016-08-21T07:26:24.721Z,2.63
2016-08-21T07:27:24.715Z,2.59
2016-08-21T07:28:24.676Z,2.62
2016-08-21T07:29:24.670Z,2.37
2016-08-21T07:30:24.661Z,2.29
2016-08-21T07:31:24.650Z,2.3
2016-08-21T07:32:24.642Z,2.25
2016-08-21T07:33:24.623Z,2.43
2016-08-21T07:34:24.634Z,2.53
2016-08-21T07:35:24.585Z,2.45
2016-08-21T07:36:24.589Z,2.45
2016-08-21T07:37:24.586Z,2.5
2016-08-21T07:38:24.561Z,2.5
2016-08-21T07:39:24.545Z,2.56
2016-08-21T07:40:24.547Z,2.41
2016-08-21T07:41:24.531Z,2.38
2016-08-21T07:42:24.516Z,2.4
2016-08-21T07:43:24.499Z,2.26
2016-08-21T07:44:24.505Z,2.27
2016-08-21T07:45:24.477Z,2.26
2016-08-21T07:46:24.462Z,2.32
2016-08-21T07:47:24.439Z,2.26
2016-08-21T07:48:24.441Z,2.29
2016-08-21T07:49:24.557Z,2.15
2016-08-21T07:50:24.409Z,2.14
2016-08-21T07:51:25.108Z,2.29
2016-08-21T07:52:24.404Z,2.2
2016-08-21T07:53:24.387Z,2.29
2016-08-21T07:54:24.351Z,2.47
2016-08-21T07:55:24.363Z,2.37
2016-08-21T07:56:24.341Z,2.43
2016-08-21T07:57:24.309Z,2.45
2016-08-21T07:58:24.312Z,2.47
2016-08-21T07:59:24.279Z,2.51
2016-08-21T08:00:24.274Z,2.61
2016-08-21T08:01:24.267Z,2.66
2016-08-21T08:02:24.248Z,2.55
2016-08-21T08:03:24.231Z,2.51
2016-08-21T08:04:24.222Z,2.62
2016-08-21T08:05:24.204Z,2.56
2016-08-21T08:06:24.190Z,2.59
2016-08-21T08:07:24.204Z,2.55
2016-08-21T08:08:24.200Z,2.61
2016-08-21T08:09:24.165Z,2.71
2016-08-21T08:10:24.150Z,2.84
2016-08-21T08:11:24.148Z,2.89
2016-08-21T08:12:24.124Z,3.02
2016-08-21T08:13:24.115Z,3.2
2016-08-21T08:14:24.094Z,2.95
2016-08-21T08:15:24.094Z,2.87
2016-08-21T08:16:24.089Z,2.84
2016-08-21T08:17:24.067Z,2.9
2016-08-21T08:18:24.063Z,2.83
2016-08-21T08:19:24.040Z,2.95
2016-08-21T08:20:24.012Z,2.89
2016-08-21T08:21:24.015Z,2.95
2016-08-21T08:22:24.010Z,2.97
2016-08-21T08:23:23.976Z,3.04
2016-08-21T08:24:23.998Z,2.97
2016-08-21T08:25:23.949Z,2.92
2016-08-21T08:26:23.952Z,2.8
2016-08-21T08:27:23.959Z,2.71
2016-08-21T08:28:23.927Z,2.59
2016-08-21T08:29:23.918Z,2.61
2016-08-21T08:30:23.904Z,2.63
2016-08-21T08:31:23.894Z,2.55
2016-08-21T08:32:23.891Z,2.61
2016-08-21T08:33:23.876Z,2.63
2016-08-21T08:34:23.877Z,2.83
2016-08-21T08:35:23.841Z,2.87
2016-08-21T08:36:23.834Z,2.86
2016-08-21T08:37:23.821Z,3.12
2016-08-21T08:38:23.802Z,3.26
2016-08-21T08:39:23.811Z,3.2
2016-08-21T08:40:23.804Z,3.22
2016-08-21T08:41:23.779Z,3.33
2016-08-21T08:42:23.737Z,3.23
2016-08-21T08:43:23.741Z,3.1
2016-08-21T08:44:23.736Z,3.17
2016-08-21T08:45:23.737Z,3.22
2016-08-21T08:46:23.707Z,3.17
2016-08-21T08:47:23.715Z,2.97
2016-08-21T08:48:23.696Z,2.89
2016-08-21T08:49:23.669Z,2.86
2016-08-21T08:50:23.657Z,2.83
2016-08-21T08:51:23.645Z,2.89
2016-08-21T08:52:23.624Z,2.92
2016-08-21T08:53:23.625Z,2.97
2016-08-21T08:54:23.590Z,3.16
2016-08-21T08:55:23.599Z,3.46
2016-08-21T08:56:23.591Z,3.71
2016-08-21T08:57:23.559Z,3.68
2016-08-21T08:58:23.579Z,3.64
2016-08-21T08:59:23.550Z,3.41
2016-08-21T09:00:23.527Z,2.95
2016-08-21T09:01:23.523Z,2.89
2016-08-21T09:02:23.518Z,2.94
2016-08-21T09:03:23.494Z,2.92
2016-08-21T09:04:23.495Z,2.94
2016-08-21T09:05:23.482Z,3.19
2016-08-21T09:06:23.469Z,2.97
2016-08-21T09:07:23.452Z,2.95
2016-08-21T09:08:23.438Z,3.04
2016-08-21T09:09:23.416Z,3.2
2016-08-21T09:10:23.429Z,3.37
2016-08-21T09:11:23.417Z,3.6
2016-08-21T09:12:23.392Z,3.68
2016-08-21T09:13:23.396Z,3.64
2016-08-21T09:14:23.379Z,3.46
2016-08-21T09:15:23.344Z,3.52
2016-08-21T09:16:24.039Z,3.37
2016-08-21T09:17:23.345Z,3.2
2016-08-21T09:18:23.325Z,3.1
2016-08-21T09:19:23.308Z,2.99
2016-08-21T09:20:24.000Z,2.94
2016-08-21T09:21:23.287Z,2.79
2016-08-21T09:22:23.271Z,2.81
2016-08-21T09:23:23.263Z,2.79
2016-08-21T09:24:23.232Z,2.92
2016-08-21T09:25:23.240Z,2.97
2016-08-21T09:26:23.229Z,2.79
2016-08-21T09:27:23.213Z,2.79
2016-08-21T09:28:23.201Z,2.71
2016-08-21T09:29:23.203Z,2.79
2016-08-21T09:30:23.191Z,2.89
2016-08-21T09:31:23.172Z,2.97
2016-08-21T09:32:23.161Z,2.99
2016-08-21T09:33:23.149Z,2.95
2016-08-21T09:34:23.120Z,3.12
2016-08-21T09:35:23.099Z,3.37
2016-08-21T09:36:23.110Z,3.46
2016-08-21T09:37:23.091Z,3.56
2016-08-21T09:38:23.094Z,3.35
2016-08-21T09:39:23.075Z,3.46
2016-08-21T09:40:23.038Z,3.37
2016-08-21T09:41:23.063Z,3.42
2016-08-21T09:42:23.029Z,3.63
2016-08-21T09:43:23.037Z,3.63
2016-08-21T09:44:23.000Z,3.63
2016-08-21T09:45:23.021Z,3.68
2016-08-21T09:46:22.990Z,3.64
2016-08-21T09:47:22.979Z,3.72
2016-08-21T09:48:22.953Z,3.88
2016-08-21T09:49:22.950Z,3.92
2016-08-21T09:50:22.942Z,3.9
2016-08-21T09:51:22.925Z,3.8
2016-08-21T09:52:23.597Z,3.95
2016-08-21T09:53:22.900Z,4.07
2016-08-21T09:54:22.879Z,3.99
2016-08-21T09:55:22.877Z,3.84
2016-08-21T09:56:22.871Z,3.75
2016-08-21T09:57:22.849Z,3.68
2016-08-21T09:58:22.851Z,3.33
2016-08-21T09:59:22.840Z,3.2
2016-08-21T10:00:22.834Z,3.25
2016-08-21T10:01:22.801Z,3.34
2016-08-21T10:02:22.822Z,3.19
2016-08-21T10:03:23.487Z,3.1
2016-08-21T10:04:22.797Z,3.26
2016-08-21T10:05:22.787Z,3.3
2016-08-21T10:06:22.751Z,3.28
2016-08-21T10:07:22.765Z,3.3
2016-08-21T10:08:22.730Z,3.25
2016-08-21T10:09:22.721Z,3.3
2016-08-21T10:10:22.725Z,3.41
2016-08-21T10:11:22.705Z,3.41
2016-08-21T10:12:22.697Z,3.56
2016-08-21T10:13:22.674Z,3.44
2016-08-21T10:14:22.668Z,3.53
2016-08-21T10:15:22.657Z,3.54
2016-08-21T10:16:22.640Z,3.63
2016-08-21T10:17:22.625Z,3.72
2016-08-21T10:18:22.620Z,3.96
2016-08-21T10:19:22.589Z,3.93
2016-08-21T10:20:22.598Z,3.86
2016-08-21T10:21:22.587Z,3.82
2016-08-21T10:22:22.554Z,3.41
2016-08-21T10:23:22.547Z,3.23
2016-08-21T10:24:22.553Z,3.13
2016-08-21T10:25:22.544Z,3.1
2016-08-21T10:26:22.544Z,3.26
2016-08-21T10:27:22.507Z,3.35
2016-08-21T10:28:22.501Z,3.41
2016-08-21T10:29:22.469Z,3.64
2016-08-21T10:30:22.494Z,3.81
2016-08-21T10:31:22.471Z,3.95
2016-08-21T10:32:22.486Z,3.8
2016-08-21T10:33:22.424Z,3.5
2016-08-21T10:34:22.433Z,3.39
2016-08-21T10:35:22.402Z,3.44
2016-08-21T10:36:22.412Z,3.54
2016-08-21T10:37:22.393Z,3.7
2016-08-21T10:38:22.374Z,3.45
2016-08-21T10:39:22.377Z,3.39
2016-08-21T10:40:22.377Z,3.41
2016-08-21T10:41:22.353Z,3.44
2016-08-21T10:42:22.351Z,3.37
2016-08-21T10:43:22.324Z,3.35
2016-08-21T10:44:22.296Z,3.35
2016-08-21T10:45:22.301Z,3.37
2016-08-21T10:46:22.310Z,3.44
2016-08-21T10:47:22.286Z,3.63
2016-08-21T10:48:22.287Z,3.52
2016-08-21T10:49:22.248Z,3.49
2016-08-21T10:50:22.283Z,3.41
2016-08-21T10:51:22.225Z,3.59
2016-08-21T10:52:22.226Z,3.67
2016-08-21T10:53:22.212Z,3.78
2016-08-21T10:54:22.204Z,3.9
2016-08-21T10:55:22.192Z,3.86
2016-08-21T10:56:22.188Z,3.98
2016-08-21T10:57:22.159Z,3.99
2016-08-21T10:58:22.166Z,3.98
2016-08-21T10:59:22.148Z,4.08
2016-08-21T11:00:22.141Z,4.1
2016-08-21T11:01:22.111Z,4.13
2016-08-21T11:02:22.101Z,4.11
2016-08-21T11:03:22.097Z,4.1
2016-08-21T11:04:22.087Z,4.06
2016-08-21T11:05:22.082Z,4.1
2016-08-21T11:06:22.057Z,3.81
2016-08-21T11:07:22.051Z,3.86
2016-08-21T11:08:22.026Z,3.84
2016-08-21T11:09:22.016Z,3.78
2016-08-21T11:10:22.722Z,3.71
2016-08-21T11:11:22.015Z,3.59
2016-08-21T11:12:21.993Z,3.62
2016-08-21T11:13:21.991Z,3.56
2016-08-21T11:14:21.953Z,3.62
2016-08-21T11:15:21.990Z,3.7
2016-08-21T11:16:21.941Z,3.7
2016-08-21T11:17:21.945Z,3.45
2016-08-21T11:18:21.929Z,2.97
2016-08-21T11:19:21.910Z,3.12
2016-08-21T11:20:21.888Z,3.01
2016-08-21T11:21:21.873Z,2.94
2016-08-21T11:22:21.884Z,2.76
2016-08-21T11:23:21.871Z,2.8
2016-08-21T11:24:21.868Z,2.8
2016-08-21T11:25:21.835Z,2.74
2016-08-21T11:26:21.809Z,2.8
2016-08-21T11:27:21.831Z,2.74
2016-08-21T11:28:21.812Z,2.79
2016-08-21T11:29:21.775Z,2.87
2016-08-21T11:30:21.756Z,2.76
2016-08-21T11:31:21.762Z,2.81
2016-08-21T11:32:21.760Z,2.95
2016-08-21T11:33:21.721Z,2.9
2016-08-21T11:34:21.720Z,2.94
2016-08-21T11:35:21.723Z,2.97
2016-08-21T11:36:21.704Z,2.95
2016-08-21T11:37:21.688Z,3.17
2016-08-21T11:38:21.672Z,2.98
2016-08-21T11:39:21.667Z,2.77
2016-08-21T11:40:21.648Z,2.76
2016-08-21T11:41:21.638Z,2.79
2016-08-21T11:42:21.634Z,2.77
2016-08-21T11:43:21.610Z,2.79
2016-08-21T11:44:21.619Z,2.77
2016-08-21T11:45:21.584Z,2.81
2016-08-21T11:46:21.575Z,2.89
2016-08-21T11:47:21.559Z,2.89
2016-08-21T11:48:21.565Z,2.86
2016-08-21T11:49:21.556Z,2.87
2016-08-21T11:50:21.665Z,2.92
2016-08-21T11:51:21.515Z,2.92
2016-08-21T11:52:21.504Z,2.87
2016-08-21T11:53:21.478Z,2.97
2016-08-21T11:54:21.472Z,3.23
2016-08-21T11:55:21.460Z,3.31
2016-08-21T11:56:21.455Z,3.2
2016-08-21T11:57:21.431Z,3.26
2016-08-21T11:58:21.438Z,3.25
2016-08-21T11:59:21.401Z,3.08
2016-08-21T12:00:21.413Z,2.97
2016-08-21T12:01:21.385Z,2.84
2016-08-21T12:02:21.395Z,2.79
2016-08-21T12:03:21.368Z,2.84
2016-08-21T12:04:21.354Z,2.9
2016-08-21T12:05:21.328Z,2.83
2016-08-21T12:06:21.315Z,2.81
2016-08-21T12:07:21.311Z,2.87
2016-08-21T12:08:21.296Z,2.83
2016-08-21T12:09:21.295Z,2.84
2016-08-21T12:10:21.287Z,2.87
2016-08-21T12:11:21.265Z,2.81
2016-08-21T12:12:21.271Z,2.83
2016-08-21T12:13:21.234Z,2.81
2016-08-21T12:14:21.223Z,2.76
2016-08-21T12:15:21.213Z,2.79
2016-08-21T12:16:21.206Z,2.84
2016-08-21T12:17:21.198Z,2.9
2016-08-21T12:18:21.185Z,2.99
2016-08-21T12:19:21.165Z,2.81
2016-08-21T12:20:21.157Z,2.9
2016-08-21T12:21:21.120Z,2.97
2016-08-21T12:22:21.131Z,2.98
2016-08-21T12:23:21.125Z,2.92
2016-08-21T12:24:21.118Z,2.87
2016-08-21T12:25:21.080Z,2.87
2016-08-21T12:26:21.075Z,3.02
2016-08-21T12:27:21.069Z,2.98
2016-08-21T12:28:21.036Z,2.95
2016-08-21T12:29:21.050Z,3.01
2016-08-21T12:30:21.017Z,3.1
2016-08-21T12:31:21.015Z,3.19
2016-08-21T12:32:21.019Z,3.15
2016-08-21T12:33:20.990Z,3.02
2016-08-21T12:34:20.979Z,3.25
2016-08-21T12:35:20.963Z,3.12
2016-08-21T12:36:20.961Z,3.2
2016-08-21T12:37:20.949Z,3.39
2016-08-21T12:38:20.917Z,3.41
2016-08-21T12:39:20.933Z,3.41
2016-08-21T12:40:20.889Z,3.37
2016-08-21T12:41:20.909Z,3.04
2016-08-21T12:42:20.874Z,2.98
2016-08-21T12:43:20.885Z,2.89
2016-08-21T12:44:20.850Z,2.95
2016-08-21T12:45:20.841Z,2.97
2016-08-21T12:46:20.846Z,2.98
2016-08-21T12:47:20.815Z,3.07
2016-08-21T12:48:20.824Z,3.19
2016-08-21T12:49:20.799Z,3.39
2016-08-21T12:50:20.827Z,3.23
2016-08-21T12:51:20.770Z,3.12
2016-08-21T12:52:20.742Z,3.22
2016-08-21T12:53:20.756Z,3.07
2016-08-21T12:54:20.730Z,2.9
2016-08-21T12:55:20.721Z,2.84
2016-08-21T12:56:20.701Z,2.98
2016-08-21T12:57:20.693Z,3.1
2016-08-21T12:58:20.702Z,3.25
2016-08-21T12:59:20.693Z,3.42
2016-08-21T13:00:20.662Z,3.44
2016-08-21T13:01:20.640Z,3.54
2016-08-21T13:02:20.628Z,3.53
2016-08-21T13:03:20.630Z,3.59
2016-08-21T13:04:20.632Z,3.46
2016-08-21T13:05:20.605Z,3.25
2016-08-21T13:06:20.601Z,3.19
2016-08-21T13:07:20.583Z,3.42
2016-08-21T13:08:20.562Z,3.46
2016-08-21T13:09:20.542Z,3.7
2016-08-21T13:10:21.247Z,3.35
2016-08-21T13:11:21.221Z,3.3
2016-08-21T13:12:20.526Z,3.15
2016-08-21T13:13:20.503Z,2.83
2016-08-21T13:14:20.501Z,2.56
2016-08-21T13:15:20.478Z,2.44
2016-08-21T13:16:20.489Z,2.5
2016-08-21T13:17:20.456Z,2.51
2016-08-21T13:18:20.445Z,2.45
2016-08-21T13:19:20.425Z,2.38
2016-08-21T13:20:20.422Z,2.37
2016-08-21T13:21:20.415Z,2.37
2016-08-21T13:22:20.390Z,2.51